createdAt,value
2019-03-22T00:00:27.214Z,63.23
2019-03-22T00:04:33.704Z,64.23
2019-03-22T00:08:38.588Z,64.77
2019-03-22T00:12:43.476Z,64.82
2019-03-22T00:16:48.364Z,64.49
2019-03-22T00:20:53.252Z,64.57
2019-03-22T00:24:58.151Z,64.41
2019-03-22T00:29:03.031Z,63.94
2019-03-22T00:33:07.923Z,64.00
2019-03-22T00:37:12.815Z,63.67
2019-03-22T00:41:17.703Z,63.35
2019-03-22T00:45:22.595Z,63.87
2019-03-22T00:49:27.477Z,64.36
2019-03-22T00:53:32.377Z,64.04
2019-03-22T00:57:37.403Z,63.87
2019-03-22T01:01:42.296Z,64.08
2019-03-22T01:05:47.449Z,63.97
2019-03-22T01:09:52.350Z,63.69
2019-03-22T01:13:57.232Z,63.58
2019-03-22T01:18:02.131Z,64.00
2019-03-22T01:22:07.021Z,65.31
2019-03-22T01:26:11.920Z,66.46
2019-03-22T01:30:18.050Z,66.71
2019-03-22T01:34:23.889Z,65.98
2019-03-22T01:38:28.784Z,66.17
2019-03-22T01:42:34.723Z,66.28
2019-03-22T01:46:39.632Z,65.68
2019-03-22T01:50:44.533Z,65.17
2019-03-22T01:54:50.502Z,64.49
2019-03-22T01:58:55.386Z,64.25
2019-03-22T02:03:00.280Z,64.56
2019-03-22T02:07:05.180Z,64.99
2019-03-22T02:11:10.076Z,65.48
2019-03-22T02:15:16.886Z,65.96
2019-03-22T02:19:21.774Z,65.92
2019-03-22T02:23:26.670Z,66.43
2019-03-22T02:27:31.574Z,66.16
2019-03-22T02:31:36.479Z,66.23
2019-03-22T02:35:41.397Z,65.81
2019-03-22T02:39:46.432Z,65.99
2019-03-22T02:43:54.568Z,65.67
2019-03-22T02:47:57.926Z,65.85
2019-03-22T02:52:02.819Z,65.89
2019-03-22T02:56:07.882Z,65.70
2019-03-22T03:00:15.528Z,65.96
2019-03-22T03:04:20.411Z,66.58
2019-03-22T03:08:25.297Z,66.03
2019-03-22T03:12:30.194Z,66.62
2019-03-22T03:16:35.090Z,66.99
2019-03-22T03:20:39.992Z,67.35
2019-03-22T03:24:44.892Z,67.83
2019-03-22T03:28:49.783Z,68.24
2019-03-22T03:32:54.684Z,68.35
2019-03-22T03:36:59.588Z,68.01
2019-03-22T03:41:04.554Z,67.83
2019-03-22T03:45:24.212Z,67.19
2019-03-22T03:49:29.103Z,66.58
2019-03-22T03:53:34.008Z,66.44
2019-03-22T03:57:38.896Z,66.53
2019-03-22T04:01:43.793Z,66.71
2019-03-22T04:05:48.681Z,66.73
2019-03-22T04:09:53.608Z,66.58
2019-03-22T04:13:58.486Z,66.39
2019-03-22T04:18:03.461Z,66.17
2019-03-22T04:22:09.322Z,66.58
2019-03-22T04:26:14.200Z,66.93
2019-03-22T04:30:19.110Z,67.09
2019-03-22T04:34:23.993Z,68.07
2019-03-22T04:38:28.879Z,68.45
2019-03-22T04:42:34.843Z,68.10
2019-03-22T04:46:41.978Z,68.43
2019-03-22T04:50:49.108Z,68.47
2019-03-22T04:54:56.281Z,68.00
2019-03-22T04:59:02.914Z,68.03
2019-03-22T05:03:09.952Z,67.36
2019-03-22T05:07:14.919Z,67.32
2019-03-22T05:11:22.042Z,68.42
2019-03-22T05:15:28.971Z,68.53
2019-03-22T05:19:37.062Z,69.38
2019-03-22T05:23:42.999Z,69.58
2019-03-22T05:27:49.936Z,69.25
2019-03-22T05:32:08.838Z,68.42
2019-03-22T05:36:13.729Z,68.47
2019-03-22T05:40:18.615Z,68.86
2019-03-22T05:44:23.517Z,68.74
2019-03-22T05:48:28.412Z,68.37
2019-03-22T05:52:33.313Z,68.23
2019-03-22T05:56:39.276Z,67.97
2019-03-22T06:00:44.178Z,66.91
2019-03-22T06:04:49.081Z,66.45
2019-03-22T06:08:53.963Z,66.02
2019-03-22T06:12:58.856Z,65.53
2019-03-22T06:17:03.744Z,65.16
2019-03-22T06:21:08.642Z,64.94
2019-03-22T06:25:13.544Z,65.68
2019-03-22T06:29:18.437Z,65.94
2019-03-22T06:33:23.333Z,65.54
2019-03-22T06:37:28.227Z,65.18
2019-03-22T06:41:33.129Z,65.11
2019-03-22T06:45:38.038Z,64.84
2019-03-22T06:49:42.936Z,64.87
2019-03-22T06:53:47.841Z,65.34
2019-03-22T06:57:52.740Z,65.96
2019-03-22T07:01:57.632Z,65.85
2019-03-22T07:06:03.603Z,65.26
2019-03-22T07:10:09.440Z,64.91
2019-03-22T07:14:14.353Z,64.41
2019-03-22T07:18:19.237Z,64.25
2019-03-22T07:22:24.126Z,64.21
2019-03-22T07:26:30.197Z,64.26
2019-03-22T07:30:35.228Z,64.22
2019-03-22T07:34:40.103Z,64.11
2019-03-22T07:38:45.008Z,64.29
2019-03-22T07:42:49.892Z,63.39
2019-03-22T07:46:54.791Z,62.71
2019-03-22T07:51:00.658Z,62.52
2019-03-22T07:55:06.696Z,61.66
2019-03-22T07:59:11.589Z,61.06
2019-03-22T08:03:16.488Z,60.57
2019-03-22T08:07:21.372Z,59.61
2019-03-22T08:11:26.286Z,59.39
2019-03-22T08:15:31.957Z,58.81
2019-03-22T08:19:36.951Z,57.25
2019-03-22T08:23:41.855Z,56.40
2019-03-22T08:27:46.735Z,54.68
2019-03-22T08:31:51.626Z,54.12
2019-03-22T08:35:56.708Z,52.18
2019-03-22T08:40:01.724Z,50.73
2019-03-22T08:44:06.619Z,49.17
2019-03-22T08:48:11.594Z,47.50
2019-03-22T08:52:20.131Z,46.06
2019-03-22T08:56:28.141Z,44.92
2019-03-22T09:00:39.567Z,44.00
2019-03-22T09:04:40.611Z,43.70
2019-03-22T09:08:47.802Z,42.83
2019-03-22T09:12:52.155Z,41.37
2019-03-22T09:16:57.059Z,41.22
2019-03-22T09:21:01.972Z,40.47
2019-03-22T09:25:07.015Z,39.68
2019-03-22T09:29:11.917Z,40.45
2019-03-22T09:33:16.847Z,39.96
2019-03-22T09:37:21.807Z,39.36
2019-03-22T09:41:26.701Z,38.93
2019-03-22T09:45:31.597Z,38.28
2019-03-22T09:49:36.560Z,38.04
2019-03-22T09:53:41.501Z,38.33
2019-03-22T09:57:49.243Z,38.67
2019-03-22T10:01:53.088Z,38.94
2019-03-22T10:05:57.955Z,38.53
2019-03-22T10:10:03.604Z,38.46
2019-03-22T10:14:08.509Z,38.79
2019-03-22T10:18:13.400Z,37.95
2019-03-22T10:22:18.326Z,38.14
2019-03-22T10:26:23.248Z,37.58
2019-03-22T10:30:28.120Z,37.58
2019-03-22T10:34:33.034Z,38.14
2019-03-22T10:38:37.937Z,38.40
2019-03-22T10:42:42.888Z,38.01
2019-03-22T10:46:47.788Z,37.72
2019-03-22T10:50:52.697Z,37.72
2019-03-22T10:54:57.699Z,37.27
2019-03-22T10:59:02.574Z,36.41
2019-03-22T11:03:07.476Z,35.26
2019-03-22T11:07:12.378Z,35.26
2019-03-22T11:11:17.290Z,35.67
2019-03-22T11:15:23.923Z,35.01
2019-03-22T11:19:28.918Z,35.06
2019-03-22T11:23:33.830Z,35.24
2019-03-22T11:27:38.726Z,34.98
2019-03-22T11:31:43.623Z,34.01
2019-03-22T11:35:48.520Z,34.35
2019-03-22T11:39:53.428Z,34.24
2019-03-22T11:43:58.320Z,33.40
2019-03-22T11:48:04.638Z,33.06
2019-03-22T11:52:09.542Z,33.78
2019-03-22T11:56:14.467Z,33.46
2019-03-22T12:00:21.776Z,33.17
2019-03-22T12:04:26.672Z,33.35
2019-03-22T12:08:31.587Z,32.59
2019-03-22T12:12:36.487Z,32.52
2019-03-22T12:16:41.393Z,32.62
2019-03-22T12:20:46.299Z,31.17
2019-03-22T12:24:51.191Z,30.93
2019-03-22T12:28:56.096Z,30.01
2019-03-22T12:33:01.006Z,30.30
2019-03-22T12:37:06.986Z,30.77
2019-03-22T12:41:11.891Z,31.07
2019-03-22T12:45:28.990Z,31.18
2019-03-22T12:49:33.885Z,30.63
2019-03-22T12:53:38.788Z,30.82
2019-03-22T12:57:43.696Z,30.82
2019-03-22T13:01:48.588Z,30.17
2019-03-22T13:05:53.497Z,29.82
2019-03-22T13:09:58.385Z,29.96
2019-03-22T13:14:03.285Z,29.15
2019-03-22T13:18:08.191Z,29.55
2019-03-22T13:22:13.157Z,29.11
2019-03-22T13:26:18.062Z,29.57
2019-03-22T13:30:37.967Z,29.72
2019-03-22T13:34:42.855Z,30.00
2019-03-22T13:38:47.755Z,29.42
2019-03-22T13:42:52.656Z,29.86
2019-03-22T13:46:57.579Z,30.16
2019-03-22T13:51:02.482Z,30.60
2019-03-22T13:55:07.811Z,30.72
2019-03-22T13:59:12.702Z,30.77
2019-03-22T14:03:18.675Z,30.62
2019-03-22T14:07:23.577Z,31.06
2019-03-22T14:11:28.472Z,31.18
2019-03-22T14:15:33.373Z,31.63
2019-03-22T14:19:38.265Z,31.48
2019-03-22T14:23:43.162Z,31.64
2019-03-22T14:27:48.061Z,32.03
2019-03-22T14:31:52.959Z,31.67
2019-03-22T14:35:57.862Z,31.81
2019-03-22T14:40:02.749Z,32.27
2019-03-22T14:44:07.644Z,32.16
2019-03-22T14:48:12.558Z,32.15
2019-03-22T14:52:17.446Z,32.10
2019-03-22T14:56:22.381Z,32.22
2019-03-22T15:00:27.279Z,32.00
2019-03-22T15:04:32.163Z,32.52
2019-03-22T15:08:37.064Z,32.45
2019-03-22T15:12:41.968Z,32.30
2019-03-22T15:16:50.933Z,32.54
2019-03-22T15:21:09.508Z,32.55
2019-03-22T15:25:18.900Z,32.60
2019-03-22T15:29:31.053Z,33.03
2019-03-22T15:33:37.673Z,32.59
2019-03-22T15:38:02.086Z,32.62
2019-03-22T15:42:06.985Z,32.70
2019-03-22T15:46:11.943Z,32.74
2019-03-22T15:50:17.149Z,32.60
2019-03-22T15:54:22.149Z,32.61
2019-03-22T15:58:27.052Z,32.66
2019-03-22T16:02:31.956Z,32.91
2019-03-22T16:06:36.931Z,32.86
2019-03-22T16:10:41.818Z,32.99
2019-03-22T16:14:46.796Z,33.07
2019-03-22T16:18:51.693Z,33.29
2019-03-22T16:22:56.595Z,33.06
2019-03-22T16:27:01.488Z,33.30
2019-03-22T16:31:06.373Z,33.37
2019-03-22T16:35:12.210Z,33.45
2019-03-22T16:39:17.111Z,33.48
2019-03-22T16:43:31.079Z,33.84
2019-03-22T16:47:36.433Z,34.29
2019-03-22T16:51:42.286Z,34.17
2019-03-22T16:55:47.182Z,34.38
2019-03-22T16:59:52.084Z,34.27
2019-03-22T17:04:04.115Z,34.54
2019-03-22T17:08:04.889Z,34.79
2019-03-22T17:12:09.775Z,34.83
2019-03-22T17:16:14.686Z,35.14
2019-03-22T17:20:19.753Z,35.29
2019-03-22T17:24:24.652Z,36.22
2019-03-22T17:28:29.549Z,35.95
2019-03-22T17:32:34.446Z,36.56
2019-03-22T17:36:39.357Z,37.78
2019-03-22T17:40:44.249Z,38.95
2019-03-22T17:44:49.151Z,40.40
2019-03-22T17:48:54.058Z,41.38
2019-03-22T17:52:58.958Z,42.83
2019-03-22T17:57:03.854Z,42.94
2019-03-22T18:01:08.754Z,43.11
2019-03-22T18:05:13.788Z,43.45
2019-03-22T18:09:18.703Z,44.86
2019-03-22T18:13:23.598Z,44.86
2019-03-22T18:17:28.487Z,45.17
2019-03-22T18:21:33.387Z,45.77
2019-03-22T18:25:38.291Z,45.77
2019-03-22T18:29:43.201Z,45.89
2019-03-22T18:33:48.100Z,46.43
2019-03-22T18:37:52.992Z,47.09
2019-03-22T18:41:57.898Z,47.61
2019-03-22T18:46:02.813Z,48.29
2019-03-22T18:50:09.773Z,49.09
2019-03-22T18:54:14.755Z,49.79
2019-03-22T18:58:19.671Z,50.35
2019-03-22T19:02:24.576Z,50.45
2019-03-22T19:06:29.475Z,50.71
2019-03-22T19:10:34.381Z,51.06
2019-03-22T19:14:39.295Z,51.32
2019-03-22T19:18:44.204Z,51.63
2019-03-22T19:22:49.098Z,52.28
2019-03-22T19:26:55.084Z,53.12
2019-03-22T19:30:59.985Z,53.34
2019-03-22T19:35:07.138Z,53.92
2019-03-22T19:39:12.049Z,54.40
2019-03-22T19:43:16.949Z,54.70
2019-03-22T19:47:21.851Z,54.85
2019-03-22T19:51:26.761Z,54.88
2019-03-22T19:55:31.671Z,55.40
2019-03-22T19:59:36.577Z,55.58
2019-03-22T20:03:41.488Z,55.79
2019-03-22T20:07:46.381Z,55.68
2019-03-22T20:11:51.290Z,55.54
2019-03-22T20:15:56.196Z,55.38
2019-03-22T20:20:01.097Z,55.67
2019-03-22T20:24:06.001Z,55.82
2019-03-22T20:28:10.895Z,56.14
2019-03-22T20:32:16.460Z,56.82
2019-03-22T20:36:21.367Z,57.43
2019-03-22T20:40:26.286Z,58.02
2019-03-22T20:44:34.090Z,58.48
2019-03-22T20:48:37.762Z,58.30
2019-03-22T20:52:42.653Z,58.24
2019-03-22T20:56:47.547Z,58.10
2019-03-22T21:00:52.448Z,58.68
2019-03-22T21:04:57.346Z,58.76
2019-03-22T21:09:02.275Z,57.95
2019-03-22T21:13:08.209Z,57.59
2019-03-22T21:17:13.110Z,57.49
2019-03-22T21:21:18.024Z,57.29
2019-03-22T21:25:22.925Z,57.81
2019-03-22T21:29:27.822Z,58.30
2019-03-22T21:33:32.715Z,58.71
2019-03-22T21:37:37.643Z,59.08
2019-03-22T21:41:42.532Z,59.33
2019-03-22T21:45:47.496Z,59.60
2019-03-22T21:49:52.404Z,59.90
2019-03-22T21:53:57.289Z,59.89
2019-03-22T21:58:02.190Z,60.00
2019-03-22T22:02:07.453Z,60.43
2019-03-22T22:06:12.354Z,60.51
2019-03-22T22:10:17.260Z,60.78
2019-03-22T22:14:22.149Z,60.41
2019-03-22T22:18:27.036Z,60.22
2019-03-22T22:22:31.935Z,60.34
2019-03-22T22:26:36.841Z,60.02
2019-03-22T22:30:41.740Z,59.56
2019-03-22T22:34:46.646Z,59.43
2019-03-22T22:38:51.536Z,59.77
2019-03-22T22:42:56.457Z,60.27
2019-03-22T22:47:01.348Z,60.67
2019-03-22T22:51:06.248Z,61.07
2019-03-22T22:55:11.292Z,61.55
2019-03-22T22:59:16.175Z,61.90
2019-03-22T23:03:21.074Z,63.38
2019-03-22T23:07:25.972Z,61.97
2019-03-22T23:11:30.860Z,61.61
2019-03-22T23:15:35.760Z,61.33
2019-03-22T23:19:40.730Z,61.42
2019-03-22T23:23:45.612Z,61.54
2019-03-22T23:27:50.514Z,61.74
2019-03-22T23:31:55.410Z,61.27
2019-03-22T23:36:00.310Z,61.00
2019-03-22T23:40:07.415Z,60.97
2019-03-22T23:44:12.296Z,61.07
2019-03-22T23:48:17.193Z,61.72
2019-03-22T23:52:22.096Z,61.99
2019-03-22T23:56:26.993Z,61.64
